sensor_id;sensor_type;location;lat;lon;timestamp;P1;durP1;ratioP1;P2;durP2;ratioP2
25497;SDS011;13406;53.380;7.226;2023-11-19T00:01:00;45.20;;;25.00;;
25497;SDS011;13406;53.380;7.226;2023-11-19T00:03:26;38.93;;;23.77;;
25497;SDS011;13406;53.380;7.226;2023-11-19T00:05:51;44.33;;;26.13;;
25497;SDS011;13406;53.380;7.226;2023-11-19T00:08:17;33.93;;;23.70;;
25497;SDS011;13406;53.380;7.226;2023-11-19T00:10:43;39.60;;;25.30;;
25497;SDS011;13406;53.380;7.226;2023-11-19T00:13:09;37.00;;;25.07;;
25497;SDS011;13406;53.380;7.226;2023-11-19T00:15:35;43.30;;;25.30;;
25497;SDS011;13406;53.380;7.226;2023-11-19T00:18:00;35.47;;;24.30;;
25497;SDS011;13406;53.380;7.226;2023-11-19T00:20:29;37.43;;;23.87;;
25497;SDS011;13406;53.380;7.226;2023-11-19T00:22:55;32.60;;;22.13;;
25497;SDS011;13406;53.380;7.226;2023-11-19T00:25:21;36.07;;;22.83;;
25497;SDS011;13406;53.380;7.226;2023-11-19T00:27:46;30.47;;;21.87;;
25497;SDS011;13406;53.380;7.226;2023-11-19T00:30:12;36.73;;;24.13;;
25497;SDS011;13406;53.380;7.226;2023-11-19T00:32:39;41.70;;;23.80;;
25497;SDS011;13406;53.380;7.226;2023-11-19T00:35:05;37.73;;;22.40;;
25497;SDS011;13406;53.380;7.226;2023-11-19T00:37:31;41.83;;;24.10;;
25497;SDS011;13406;53.380;7.226;2023-11-19T00:39:57;38.57;;;25.53;;
25497;SDS011;13406;53.380;7.226;2023-11-19T00:42:23;35.63;;;23.57;;
25497;SDS011;13406;53.380;7.226;2023-11-19T00:44:52;41.93;;;23.40;;
25497;SDS011;13406;53.380;7.226;2023-11-19T00:47:17;34.03;;;23.37;;
25497;SDS011;13406;53.380;7.226;2023-11-19T00:49:46;45.47;;;25.53;;
25497;SDS011;13406;53.380;7.226;2023-11-19T00:52:14;37.63;;;22.13;;
25497;SDS011;13406;53.380;7.226;2023-11-19T00:54:40;40.90;;;23.67;;
25497;SDS011;13406;53.380;7.226;2023-11-19T00:57:05;34.53;;;21.83;;
25497;SDS011;13406;53.380;7.226;2023-11-19T00:59:31;43.43;;;23.67;;
25497;SDS011;13406;53.380;7.226;2023-11-19T01:01:56;37.00;;;23.53;;
25497;SDS011;13406;53.380;7.226;2023-11-19T01:04:21;42.43;;;23.93;;
25497;SDS011;13406;53.380;7.226;2023-11-19T01:06:49;45.27;;;25.57;;
25497;SDS011;13406;53.380;7.226;2023-11-19T01:09:15;47.50;;;23.23;;
25497;SDS011;13406;53.380;7.226;2023-11-19T01:11:40;40.17;;;24.20;;
25497;SDS011;13406;53.380;7.226;2023-11-19T01:14:05;42.53;;;24.20;;
25497;SDS011;13406;53.380;7.226;2023-11-19T01:16:31;37.47;;;22.10;;
25497;SDS011;13406;53.380;7.226;2023-11-19T01:18:56;43.93;;;24.00;;
25497;SDS011;13406;53.380;7.226;2023-11-19T01:21:22;40.97;;;24.50;;
25497;SDS011;13406;53.380;7.226;2023-11-19T01:23:47;36.47;;;22.80;;
25497;SDS011;13406;53.380;7.226;2023-11-19T01:26:15;41.33;;;23.90;;
25497;SDS011;13406;53.380;7.226;2023-11-19T01:28:41;40.77;;;22.30;;
25497;SDS011;13406;53.380;7.226;2023-11-19T01:31:10;41.07;;;23.27;;
25497;SDS011;13406;53.380;7.226;2023-11-19T01:33:36;32.63;;;21.70;;
25497;SDS011;13406;53.380;7.226;2023-11-19T01:36:02;42.43;;;23.73;;
25497;SDS011;13406;53.380;7.226;2023-11-19T01:38:29;37.80;;;23.30;;
25497;SDS011;13406;53.380;7.226;2023-11-19T01:40:56;41.23;;;23.30;;
25497;SDS011;13406;53.380;7.226;2023-11-19T01:46:01;44.57;;;23.90;;
25497;SDS011;13406;53.380;7.226;2023-11-19T01:48:28;40.60;;;23.77;;
25497;SDS011;13406;53.380;7.226;2023-11-19T01:50:55;42.50;;;22.83;;
25497;SDS011;13406;53.380;7.226;2023-11-19T01:53:21;39.97;;;22.20;;
25497;SDS011;13406;53.380;7.226;2023-11-19T01:55:47;41.17;;;22.07;;
25497;SDS011;13406;53.380;7.226;2023-11-19T01:58:13;44.40;;;22.90;;
25497;SDS011;13406;53.380;7.226;2023-11-19T02:00:39;52.33;;;23.53;;
25497;SDS011;13406;53.380;7.226;2023-11-19T02:03:06;41.40;;;21.50;;
25497;SDS011;13406;53.380;7.226;2023-11-19T02:05:34;40.90;;;22.87;;
25497;SDS011;13406;53.380;7.226;2023-11-19T02:08:00;42.53;;;19.27;;
25497;SDS011;13406;53.380;7.226;2023-11-19T02:10:26;38.30;;;19.00;;
25497;SDS011;13406;53.380;7.226;2023-11-19T02:12:52;44.23;;;17.13;;
25497;SDS011;13406;53.380;7.226;2023-11-19T02:15:17;32.87;;;16.30;;
25497;SDS011;13406;53.380;7.226;2023-11-19T02:17:49;41.43;;;15.67;;
25497;SDS011;13406;53.380;7.226;2023-11-19T02:20:15;31.33;;;14.03;;
25497;SDS011;13406;53.380;7.226;2023-11-19T02:22:41;44.90;;;15.83;;
25497;SDS011;13406;53.380;7.226;2023-11-19T02:25:07;41.63;;;12.17;;
25497;SDS011;13406;53.380;7.226;2023-11-19T02:30:16;49.70;;;11.33;;
25497;SDS011;13406;53.380;7.226;2023-11-19T02:32:42;38.40;;;10.90;;
25497;SDS011;13406;53.380;7.226;2023-11-19T02:35:07;36.47;;;9.30;;
25497;SDS011;13406;53.380;7.226;2023-11-19T02:37:36;46.90;;;8.90;;
25497;SDS011;13406;53.380;7.226;2023-11-19T02:40:04;35.33;;;8.03;;
25497;SDS011;13406;53.380;7.226;2023-11-19T02:42:30;48.17;;;8.80;;
25497;SDS011;13406;53.380;7.226;2023-11-19T02:44:56;38.90;;;7.37;;
25497;SDS011;13406;53.380;7.226;2023-11-19T02:47:21;43.13;;;8.00;;
25497;SDS011;13406;53.380;7.226;2023-11-19T02:49:49;41.70;;;7.37;;
25497;SDS011;13406;53.380;7.226;2023-11-19T02:52:15;41.83;;;7.77;;
25497;SDS011;13406;53.380;7.226;2023-11-19T02:54:41;32.33;;;6.93;;
25497;SDS011;13406;53.380;7.226;2023-11-19T02:57:08;44.30;;;8.10;;
25497;SDS011;13406;53.380;7.226;2023-11-19T02:59:38;38.33;;;6.50;;
25497;SDS011;13406;53.380;7.226;2023-11-19T03:02:06;34.30;;;6.90;;
25497;SDS011;13406;53.380;7.226;2023-11-19T03:04:36;38.87;;;7.60;;
25497;SDS011;13406;53.380;7.226;2023-11-19T03:07:03;46.57;;;8.83;;
25497;SDS011;13406;53.380;7.226;2023-11-19T03:09:28;50.33;;;7.53;;
25497;SDS011;13406;53.380;7.226;2023-11-19T03:11:54;38.33;;;7.20;;
25497;SDS011;13406;53.380;7.226;2023-11-19T03:14:20;40.60;;;7.13;;
25497;SDS011;13406;53.380;7.226;2023-11-19T03:16:45;45.97;;;7.77;;
25497;SDS011;13406;53.380;7.226;2023-11-19T03:19:14;34.40;;;7.50;;
25497;SDS011;13406;53.380;7.226;2023-11-19T03:21:40;33.10;;;7.07;;
25497;SDS011;13406;53.380;7.226;2023-11-19T03:24:05;41.37;;;8.83;;
25497;SDS011;13406;53.380;7.226;2023-11-19T03:26:32;35.10;;;7.97;;
25497;SDS011;13406;53.380;7.226;2023-11-19T03:28:59;37.83;;;7.33;;
25497;SDS011;13406;53.380;7.226;2023-11-19T03:31:24;47.53;;;6.77;;
25497;SDS011;13406;53.380;7.226;2023-11-19T03:33:50;47.47;;;6.37;;
25497;SDS011;13406;53.380;7.226;2023-11-19T03:36:15;35.40;;;7.27;;
25497;SDS011;13406;53.380;7.226;2023-11-19T03:38:41;42.70;;;7.60;;
25497;SDS011;13406;53.380;7.226;2023-11-19T03:41:16;44.53;;;8.37;;
25497;SDS011;13406;53.380;7.226;2023-11-19T03:43:42;41.30;;;9.40;;
25497;SDS011;13406;53.380;7.226;2023-11-19T03:46:17;36.33;;;6.57;;
25497;SDS011;13406;53.380;7.226;2023-11-19T03:48:43;35.10;;;6.30;;
25497;SDS011;13406;53.380;7.226;2023-11-19T03:51:08;32.83;;;6.27;;
25497;SDS011;13406;53.380;7.226;2023-11-19T03:53:34;45.83;;;6.70;;
25497;SDS011;13406;53.380;7.226;2023-11-19T03:56:00;35.03;;;6.97;;
25497;SDS011;13406;53.380;7.226;2023-11-19T03:58:26;52.20;;;7.90;;
25497;SDS011;13406;53.380;7.226;2023-11-19T04:00:51;31.83;;;7.00;;
25497;SDS011;13406;53.380;7.226;2023-11-19T04:03:17;27.30;;;6.67;;
25497;SDS011;13406;53.380;7.226;2023-11-19T04:05:44;34.83;;;6.57;;
25497;SDS011;13406;53.380;7.226;2023-11-19T04:08:10;39.73;;;6.70;;
25497;SDS011;13406;53.380;7.226;2023-11-19T04:10:35;44.07;;;7.73;;
25497;SDS011;13406;53.380;7.226;2023-11-19T04:13:00;35.83;;;6.10;;
25497;SDS011;13406;53.380;7.226;2023-11-19T04:15:26;42.23;;;6.03;;
25497;SDS011;13406;53.380;7.226;2023-11-19T04:17:51;35.17;;;6.20;;
25497;SDS011;13406;53.380;7.226;2023-11-19T04:20:17;39.80;;;6.67;;
25497;SDS011;13406;53.380;7.226;2023-11-19T04:22:43;33.43;;;6.63;;
25497;SDS011;13406;53.380;7.226;2023-11-19T04:25:08;39.93;;;7.27;;
25497;SDS011;13406;53.380;7.226;2023-11-19T04:27:34;43.87;;;6.63;;
25497;SDS011;13406;53.380;7.226;2023-11-19T04:29:59;41.70;;;7.93;;
25497;SDS011;13406;53.380;7.226;2023-11-19T04:32:26;42.30;;;7.40;;
25497;SDS011;13406;53.380;7.226;2023-11-19T04:34:52;36.43;;;6.70;;
25497;SDS011;13406;53.380;7.226;2023-11-19T04:37:17;40.20;;;6.90;;
25497;SDS011;13406;53.380;7.226;2023-11-19T04:39:46;30.90;;;6.73;;
25497;SDS011;13406;53.380;7.226;2023-11-19T04:42:11;35.60;;;7.27;;
25497;SDS011;13406;53.380;7.226;2023-11-19T04:44:37;35.03;;;6.77;;
25497;SDS011;13406;53.380;7.226;2023-11-19T04:47:03;42.30;;;7.00;;
25497;SDS011;13406;53.380;7.226;2023-11-19T04:49:28;36.23;;;7.67;;
25497;SDS011;13406;53.380;7.226;2023-11-19T04:51:55;37.50;;;8.70;;
25497;SDS011;13406;53.380;7.226;2023-11-19T04:54:21;39.43;;;7.07;;
25497;SDS011;13406;53.380;7.226;2023-11-19T04:56:46;39.23;;;7.43;;
25497;SDS011;13406;53.380;7.226;2023-11-19T04:59:12;35.03;;;6.40;;
25497;SDS011;13406;53.380;7.226;2023-11-19T05:01:37;32.70;;;7.80;;
25497;SDS011;13406;53.380;7.226;2023-11-19T05:04:03;49.40;;;7.17;;
25497;SDS011;13406;53.380;7.226;2023-11-19T05:06:29;36.13;;;6.20;;
25497;SDS011;13406;53.380;7.226;2023-11-19T05:08:58;31.60;;;7.10;;
25497;SDS011;13406;53.380;7.226;2023-11-19T05:11:33;34.90;;;7.27;;
25497;SDS011;13406;53.380;7.226;2023-11-19T05:13:59;41.13;;;8.40;;
25497;SDS011;13406;53.380;7.226;2023-11-19T05:16:26;38.77;;;8.27;;
25497;SDS011;13406;53.380;7.226;2023-11-19T05:18:51;43.37;;;7.83;;
25497;SDS011;13406;53.380;7.226;2023-11-19T05:21:17;37.10;;;7.40;;
25497;SDS011;13406;53.380;7.226;2023-11-19T05:23:42;34.73;;;6.47;;
25497;SDS011;13406;53.380;7.226;2023-11-19T05:26:08;37.27;;;6.77;;
25497;SDS011;13406;53.380;7.226;2023-11-19T05:28:37;40.33;;;8.60;;
25497;SDS011;13406;53.380;7.226;2023-11-19T05:31:04;31.40;;;6.57;;
25497;SDS011;13406;53.380;7.226;2023-11-19T05:33:30;33.07;;;6.83;;
25497;SDS011;13406;53.380;7.226;2023-11-19T05:35:56;41.53;;;7.80;;
25497;SDS011;13406;53.380;7.226;2023-11-19T05:38:22;32.90;;;6.90;;
25497;SDS011;13406;53.380;7.226;2023-11-19T05:40:47;38.00;;;7.70;;
25497;SDS011;13406;53.380;7.226;2023-11-19T05:43:13;43.13;;;8.00;;
25497;SDS011;13406;53.380;7.226;2023-11-19T05:45:39;32.63;;;6.37;;
25497;SDS011;13406;53.380;7.226;2023-11-19T05:48:05;37.97;;;6.83;;
25497;SDS011;13406;53.380;7.226;2023-11-19T05:50:30;39.73;;;7.50;;
25497;SDS011;13406;53.380;7.226;2023-11-19T05:52:56;35.50;;;7.33;;
25497;SDS011;13406;53.380;7.226;2023-11-19T05:55:21;37.27;;;7.23;;
25497;SDS011;13406;53.380;7.226;2023-11-19T05:57:48;38.30;;;6.93;;
25497;SDS011;13406;53.380;7.226;2023-11-19T06:00:14;40.10;;;6.40;;
25497;SDS011;13406;53.380;7.226;2023-11-19T06:02:40;29.63;;;6.80;;
25497;SDS011;13406;53.380;7.226;2023-11-19T06:05:06;43.40;;;7.07;;
25497;SDS011;13406;53.380;7.226;2023-11-19T06:07:35;39.20;;;7.20;;
25497;SDS011;13406;53.380;7.226;2023-11-19T06:10:01;42.63;;;7.90;;
25497;SDS011;13406;53.380;7.226;2023-11-19T06:12:30;39.90;;;7.33;;
25497;SDS011;13406;53.380;7.226;2023-11-19T06:14:57;43.73;;;8.70;;
25497;SDS011;13406;53.380;7.226;2023-11-19T06:17:22;37.17;;;7.33;;
25497;SDS011;13406;53.380;7.226;2023-11-19T06:19:47;39.43;;;7.60;;
25497;SDS011;13406;53.380;7.226;2023-11-19T06:22:13;42.17;;;7.80;;
25497;SDS011;13406;53.380;7.226;2023-11-19T06:24:38;37.30;;;7.23;;
25497;SDS011;13406;53.380;7.226;2023-11-19T06:27:04;48.90;;;8.20;;
25497;SDS011;13406;53.380;7.226;2023-11-19T06:29:29;34.80;;;6.30;;
25497;SDS011;13406;53.380;7.226;2023-11-19T06:31:54;36.50;;;7.43;;
25497;SDS011;13406;53.380;7.226;2023-11-19T06:34:20;52.43;;;8.87;;
25497;SDS011;13406;53.380;7.226;2023-11-19T06:36:45;34.73;;;6.93;;
25497;SDS011;13406;53.380;7.226;2023-11-19T06:39:11;47.00;;;6.70;;
25497;SDS011;13406;53.380;7.226;2023-11-19T06:41:37;43.87;;;8.43;;
25497;SDS011;13406;53.380;7.226;2023-11-19T06:44:05;34.63;;;7.57;;
25497;SDS011;13406;53.380;7.226;2023-11-19T06:46:31;36.70;;;7.23;;
25497;SDS011;13406;53.380;7.226;2023-11-19T06:48:56;40.63;;;7.27;;
25497;SDS011;13406;53.380;7.226;2023-11-19T06:51:22;34.83;;;7.70;;
25497;SDS011;13406;53.380;7.226;2023-11-19T06:53:49;39.17;;;7.30;;
25497;SDS011;13406;53.380;7.226;2023-11-19T06:56:18;45.63;;;8.33;;
25497;SDS011;13406;53.380;7.226;2023-11-19T06:58:47;33.83;;;7.40;;
25497;SDS011;13406;53.380;7.226;2023-11-19T07:01:14;39.80;;;7.70;;
25497;SDS011;13406;53.380;7.226;2023-11-19T07:03:46;39.60;;;7.23;;
25497;SDS011;13406;53.380;7.226;2023-11-19T07:06:12;34.40;;;7.30;;
25497;SDS011;13406;53.380;7.226;2023-11-19T07:08:41;39.93;;;7.33;;
25497;SDS011;13406;53.380;7.226;2023-11-19T07:11:09;44.27;;;8.77;;
25497;SDS011;13406;53.380;7.226;2023-11-19T07:13:36;43.40;;;7.20;;
25497;SDS011;13406;53.380;7.226;2023-11-19T07:16:02;45.53;;;8.30;;
25497;SDS011;13406;53.380;7.226;2023-11-19T07:18:28;44.87;;;7.73;;
25497;SDS011;13406;53.380;7.226;2023-11-19T07:20:54;33.60;;;7.70;;
25497;SDS011;13406;53.380;7.226;2023-11-19T07:23:20;35.90;;;8.23;;
25497;SDS011;13406;53.380;7.226;2023-11-19T07:25:46;37.87;;;7.97;;
25497;SDS011;13406;53.380;7.226;2023-11-19T07:28:13;42.80;;;8.80;;
25497;SDS011;13406;53.380;7.226;2023-11-19T07:30:39;30.40;;;7.70;;
25497;SDS011;13406;53.380;7.226;2023-11-19T07:33:05;40.83;;;6.97;;
25497;SDS011;13406;53.380;7.226;2023-11-19T07:35:31;44.03;;;7.83;;
25497;SDS011;13406;53.380;7.226;2023-11-19T07:37:57;38.43;;;7.40;;
25497;SDS011;13406;53.380;7.226;2023-11-19T07:40:23;40.13;;;7.20;;
25497;SDS011;13406;53.380;7.226;2023-11-19T07:42:49;40.40;;;7.73;;
25497;SDS011;13406;53.380;7.226;2023-11-19T07:45:15;37.33;;;7.17;;
25497;SDS011;13406;53.380;7.226;2023-11-19T07:47:41;38.03;;;7.63;;
25497;SDS011;13406;53.380;7.226;2023-11-19T07:50:07;37.90;;;7.33;;
25497;SDS011;13406;53.380;7.226;2023-11-19T07:52:34;52.43;;;8.90;;
25497;SDS011;13406;53.380;7.226;2023-11-19T07:55:00;50.23;;;7.77;;
25497;SDS011;13406;53.380;7.226;2023-11-19T07:57:26;37.23;;;8.33;;
25497;SDS011;13406;53.380;7.226;2023-11-19T07:59:55;38.83;;;8.00;;
25497;SDS011;13406;53.380;7.226;2023-11-19T08:02:20;37.83;;;8.13;;
25497;SDS011;13406;53.380;7.226;2023-11-19T08:04:46;41.93;;;7.60;;
25497;SDS011;13406;53.380;7.226;2023-11-19T08:07:15;36.10;;;6.70;;
25497;SDS011;13406;53.380;7.226;2023-11-19T08:09:40;38.73;;;7.10;;
25497;SDS011;13406;53.380;7.226;2023-11-19T08:12:06;37.23;;;7.33;;
25497;SDS011;13406;53.380;7.226;2023-11-19T08:14:33;41.00;;;8.87;;
25497;SDS011;13406;53.380;7.226;2023-11-19T08:16:58;44.60;;;10.07;;
25497;SDS011;13406;53.380;7.226;2023-11-19T08:19:24;40.90;;;9.03;;
25497;SDS011;13406;53.380;7.226;2023-11-19T08:21:49;37.77;;;6.60;;
25497;SDS011;13406;53.380;7.226;2023-11-19T08:24:14;44.93;;;7.87;;
25497;SDS011;13406;53.380;7.226;2023-11-19T08:26:40;56.40;;;8.87;;
25497;SDS011;13406;53.380;7.226;2023-11-19T08:29:06;43.17;;;8.30;;
25497;SDS011;13406;53.380;7.226;2023-11-19T08:31:32;32.03;;;6.90;;
25497;SDS011;13406;53.380;7.226;2023-11-19T08:33:57;33.50;;;7.37;;
25497;SDS011;13406;53.380;7.226;2023-11-19T08:36:22;45.60;;;8.93;;
25497;SDS011;13406;53.380;7.226;2023-11-19T08:38:48;38.60;;;7.43;;
25497;SDS011;13406;53.380;7.226;2023-11-19T08:41:13;40.93;;;8.30;;
25497;SDS011;13406;53.380;7.226;2023-11-19T08:43:39;51.47;;;9.00;;
25497;SDS011;13406;53.380;7.226;2023-11-19T08:46:09;38.93;;;7.20;;
25497;SDS011;13406;53.380;7.226;2023-11-19T08:48:35;48.67;;;8.20;;
25497;SDS011;13406;53.380;7.226;2023-11-19T08:51:01;34.63;;;7.90;;
25497;SDS011;13406;53.380;7.226;2023-11-19T08:53:26;36.93;;;7.50;;
25497;SDS011;13406;53.380;7.226;2023-11-19T08:55:52;41.17;;;8.47;;
25497;SDS011;13406;53.380;7.226;2023-11-19T08:58:17;34.97;;;7.07;;
25497;SDS011;13406;53.380;7.226;2023-11-19T09:00:43;31.03;;;6.33;;
25497;SDS011;13406;53.380;7.226;2023-11-19T09:03:09;43.13;;;9.50;;
25497;SDS011;13406;53.380;7.226;2023-11-19T09:05:34;39.43;;;7.10;;
25497;SDS011;13406;53.380;7.226;2023-11-19T09:08:00;32.77;;;6.93;;
25497;SDS011;13406;53.380;7.226;2023-11-19T09:10:25;34.70;;;7.30;;
25497;SDS011;13406;53.380;7.226;2023-11-19T09:12:52;41.80;;;7.00;;
25497;SDS011;13406;53.380;7.226;2023-11-19T09:15:17;38.57;;;6.90;;
25497;SDS011;13406;53.380;7.226;2023-11-19T09:17:43;39.20;;;7.50;;
25497;SDS011;13406;53.380;7.226;2023-11-19T09:20:08;44.07;;;8.33;;
25497;SDS011;13406;53.380;7.226;2023-11-19T09:22:37;50.17;;;8.60;;
25497;SDS011;13406;53.380;7.226;2023-11-19T09:25:03;45.07;;;7.13;;
25497;SDS011;13406;53.380;7.226;2023-11-19T09:27:30;49.57;;;8.10;;
25497;SDS011;13406;53.380;7.226;2023-11-19T09:29:55;40.20;;;7.10;;
25497;SDS011;13406;53.380;7.226;2023-11-19T09:32:23;38.97;;;7.90;;
25497;SDS011;13406;53.380;7.226;2023-11-19T09:34:48;40.30;;;7.83;;
25497;SDS011;13406;53.380;7.226;2023-11-19T09:37:14;48.57;;;8.00;;
25497;SDS011;13406;53.380;7.226;2023-11-19T09:39:40;47.20;;;7.33;;
25497;SDS011;13406;53.380;7.226;2023-11-19T09:42:08;38.60;;;7.07;;
25497;SDS011;13406;53.380;7.226;2023-11-19T09:44:35;43.83;;;8.30;;
25497;SDS011;13406;53.380;7.226;2023-11-19T09:47:04;38.37;;;8.03;;
25497;SDS011;13406;53.380;7.226;2023-11-19T09:49:29;55.20;;;8.90;;
25497;SDS011;13406;53.380;7.226;2023-11-19T09:51:55;46.00;;;8.60;;
25497;SDS011;13406;53.380;7.226;2023-11-19T09:54:21;47.47;;;8.20;;
25497;SDS011;13406;53.380;7.226;2023-11-19T09:56:46;36.20;;;6.93;;
25497;SDS011;13406;53.380;7.226;2023-11-19T09:59:13;38.43;;;7.40;;
25497;SDS011;13406;53.380;7.226;2023-11-19T10:01:39;47.27;;;8.73;;
25497;SDS011;13406;53.380;7.226;2023-11-19T10:04:05;43.40;;;8.40;;
25497;SDS011;13406;53.380;7.226;2023-11-19T10:06:32;33.20;;;7.40;;
25497;SDS011;13406;53.380;7.226;2023-11-19T10:08:57;52.93;;;10.10;;
25497;SDS011;13406;53.380;7.226;2023-11-19T10:11:24;40.90;;;7.20;;
25497;SDS011;13406;53.380;7.226;2023-11-19T10:13:50;39.83;;;7.90;;
25497;SDS011;13406;53.380;7.226;2023-11-19T10:16:18;40.50;;;6.90;;
25497;SDS011;13406;53.380;7.226;2023-11-19T10:18:47;42.17;;;8.00;;
25497;SDS011;13406;53.380;7.226;2023-11-19T10:21:14;34.53;;;7.70;;
25497;SDS011;13406;53.380;7.226;2023-11-19T10:23:52;35.37;;;7.23;;
25497;SDS011;13406;53.380;7.226;2023-11-19T10:26:27;45.77;;;8.10;;
25497;SDS011;13406;53.380;7.226;2023-11-19T10:28:54;38.90;;;7.17;;
25497;SDS011;13406;53.380;7.226;2023-11-19T10:31:21;47.23;;;8.57;;
25497;SDS011;13406;53.380;7.226;2023-11-19T10:33:50;50.93;;;8.20;;
25497;SDS011;13406;53.380;7.226;2023-11-19T10:36:16;41.97;;;8.10;;
25497;SDS011;13406;53.380;7.226;2023-11-19T10:38:51;34.67;;;6.90;;
25497;SDS011;13406;53.380;7.226;2023-11-19T10:41:31;31.33;;;7.23;;
25497;SDS011;13406;53.380;7.226;2023-11-19T10:43:57;37.30;;;8.00;;
25497;SDS011;13406;53.380;7.226;2023-11-19T10:46:23;30.57;;;7.63;;
25497;SDS011;13406;53.380;7.226;2023-11-19T10:49:01;39.10;;;7.60;;
25497;SDS011;13406;53.380;7.226;2023-11-19T10:51:27;38.73;;;6.90;;
25497;SDS011;13406;53.380;7.226;2023-11-19T10:53:54;32.87;;;7.60;;
25497;SDS011;13406;53.380;7.226;2023-11-19T10:56:26;30.50;;;8.20;;
25497;SDS011;13406;53.380;7.226;2023-11-19T10:58:55;31.23;;;6.57;;
25497;SDS011;13406;53.380;7.226;2023-11-19T11:01:24;32.83;;;7.37;;
25497;SDS011;13406;53.380;7.226;2023-11-19T11:03:56;33.20;;;8.50;;
25497;SDS011;13406;53.380;7.226;2023-11-19T11:06:26;40.83;;;8.67;;
25497;SDS011;13406;53.380;7.226;2023-11-19T11:08:52;46.13;;;11.17;;
25497;SDS011;13406;53.380;7.226;2023-11-19T11:11:19;40.93;;;7.60;;
25497;SDS011;13406;53.380;7.226;2023-11-19T11:13:48;33.70;;;8.67;;
25497;SDS011;13406;53.380;7.226;2023-11-19T11:16:16;38.63;;;7.43;;
25497;SDS011;13406;53.380;7.226;2023-11-19T11:18:44;39.90;;;7.00;;
25497;SDS011;13406;53.380;7.226;2023-11-19T11:21:11;31.93;;;7.00;;
25497;SDS011;13406;53.380;7.226;2023-11-19T11:34:28;47.43;;;7.30;;
25497;SDS011;13406;53.380;7.226;2023-11-19T11:37:29;41.23;;;7.63;;
25497;SDS011;13406;53.380;7.226;2023-11-19T11:39:58;30.00;;;6.33;;
25497;SDS011;13406;53.380;7.226;2023-11-19T11:44:59;28.63;;;6.57;;
25497;SDS011;13406;53.380;7.226;2023-11-19T11:50:12;29.37;;;7.80;;
25497;SDS011;13406;53.380;7.226;2023-11-19T11:55:33;33.50;;;10.00;;
25497;SDS011;13406;53.380;7.226;2023-11-19T11:58:01;35.70;;;12.83;;
25497;SDS011;13406;53.380;7.226;2023-11-19T12:00:37;41.27;;;10.07;;
25497;SDS011;13406;53.380;7.226;2023-11-19T12:03:06;39.13;;;12.07;;
25497;SDS011;13406;53.380;7.226;2023-11-19T12:05:32;41.40;;;10.93;;
25497;SDS011;13406;53.380;7.226;2023-11-19T12:08:01;47.77;;;11.13;;
25497;SDS011;13406;53.380;7.226;2023-11-19T12:10:33;33.90;;;7.70;;
25497;SDS011;13406;53.380;7.226;2023-11-19T12:13:04;23.73;;;6.20;;
25497;SDS011;13406;53.380;7.226;2023-11-19T12:15:32;25.80;;;5.60;;
25497;SDS011;13406;53.380;7.226;2023-11-19T12:17:58;35.67;;;6.70;;
25497;SDS011;13406;53.380;7.226;2023-11-19T12:20:24;37.60;;;8.30;;
25497;SDS011;13406;53.380;7.226;2023-11-19T12:22:51;33.87;;;7.40;;
25497;SDS011;13406;53.380;7.226;2023-11-19T12:25:17;27.87;;;5.40;;
25497;SDS011;13406;53.380;7.226;2023-11-19T12:27:45;38.60;;;7.60;;
25497;SDS011;13406;53.380;7.226;2023-11-19T12:30:12;30.53;;;6.00;;
25497;SDS011;13406;53.380;7.226;2023-11-19T12:32:38;41.93;;;5.60;;
25497;SDS011;13406;53.380;7.226;2023-11-19T12:35:08;36.37;;;7.10;;
25497;SDS011;13406;53.380;7.226;2023-11-19T12:37:46;31.13;;;5.00;;
25497;SDS011;13406;53.380;7.226;2023-11-19T12:42:47;33.27;;;6.23;;
25497;SDS011;13406;53.380;7.226;2023-11-19T12:45:13;35.87;;;6.70;;
25497;SDS011;13406;53.380;7.226;2023-11-19T12:47:39;35.73;;;7.37;;
25497;SDS011;13406;53.380;7.226;2023-11-19T12:50:06;22.93;;;4.80;;
25497;SDS011;13406;53.380;7.226;2023-11-19T12:52:32;26.47;;;5.40;;
25497;SDS011;13406;53.380;7.226;2023-11-19T12:54:58;36.10;;;6.67;;
25497;SDS011;13406;53.380;7.226;2023-11-19T12:57:40;28.03;;;5.70;;
25497;SDS011;13406;53.380;7.226;2023-11-19T13:00:06;34.10;;;6.20;;
25497;SDS011;13406;53.380;7.226;2023-11-19T13:02:44;34.43;;;6.07;;
25497;SDS011;13406;53.380;7.226;2023-11-19T13:05:20;29.83;;;6.40;;
25497;SDS011;13406;53.380;7.226;2023-11-19T13:07:47;30.83;;;6.03;;
25497;SDS011;13406;53.380;7.226;2023-11-19T13:10:12;33.23;;;6.80;;
25497;SDS011;13406;53.380;7.226;2023-11-19T13:12:38;35.10;;;5.83;;
25497;SDS011;13406;53.380;7.226;2023-11-19T13:15:04;29.27;;;5.70;;
25497;SDS011;13406;53.380;7.226;2023-11-19T13:17:30;30.10;;;5.57;;
25497;SDS011;13406;53.380;7.226;2023-11-19T13:19:56;22.83;;;5.90;;
25497;SDS011;13406;53.380;7.226;2023-11-19T13:22:22;29.63;;;8.20;;
25497;SDS011;13406;53.380;7.226;2023-11-19T13:24:47;27.90;;;6.20;;
25497;SDS011;13406;53.380;7.226;2023-11-19T13:27:13;31.57;;;5.90;;
25497;SDS011;13406;53.380;7.226;2023-11-19T13:29:38;30.80;;;6.57;;
25497;SDS011;13406;53.380;7.226;2023-11-19T13:32:04;34.63;;;7.57;;
25497;SDS011;13406;53.380;7.226;2023-11-19T13:34:30;23.77;;;5.90;;
25497;SDS011;13406;53.380;7.226;2023-11-19T13:36:56;26.20;;;6.30;;
25497;SDS011;13406;53.380;7.226;2023-11-19T13:39:21;29.20;;;6.50;;
25497;SDS011;13406;53.380;7.226;2023-11-19T13:41:48;27.50;;;5.90;;
25497;SDS011;13406;53.380;7.226;2023-11-19T13:44:15;25.13;;;5.57;;
25497;SDS011;13406;53.380;7.226;2023-11-19T13:46:43;24.03;;;4.47;;
25497;SDS011;13406;53.380;7.226;2023-11-19T13:49:09;19.37;;;4.70;;
25497;SDS011;13406;53.380;7.226;2023-11-19T13:51:35;22.83;;;5.63;;
25497;SDS011;13406;53.380;7.226;2023-11-19T13:54:01;26.93;;;5.13;;
25497;SDS011;13406;53.380;7.226;2023-11-19T13:56:26;33.40;;;5.90;;
25497;SDS011;13406;53.380;7.226;2023-11-19T13:58:52;30.97;;;6.53;;
25497;SDS011;13406;53.380;7.226;2023-11-19T14:01:25;27.30;;;5.90;;
25497;SDS011;13406;53.380;7.226;2023-11-19T14:03:51;35.20;;;5.80;;
25497;SDS011;13406;53.380;7.226;2023-11-19T14:06:17;31.33;;;6.00;;
25497;SDS011;13406;53.380;7.226;2023-11-19T14:08:43;38.20;;;5.80;;
25497;SDS011;13406;53.380;7.226;2023-11-19T14:11:08;24.73;;;5.37;;
25497;SDS011;13406;53.380;7.226;2023-11-19T14:13:33;29.80;;;6.23;;
25497;SDS011;13406;53.380;7.226;2023-11-19T14:15:59;33.13;;;6.97;;
25497;SDS011;13406;53.380;7.226;2023-11-19T14:18:25;37.20;;;7.00;;
25497;SDS011;13406;53.380;7.226;2023-11-19T14:20:51;24.07;;;5.33;;
25497;SDS011;13406;53.380;7.226;2023-11-19T14:23:16;27.03;;;5.70;;
25497;SDS011;13406;53.380;7.226;2023-11-19T14:25:43;30.93;;;6.80;;
25497;SDS011;13406;53.380;7.226;2023-11-19T14:28:08;32.43;;;8.33;;
25497;SDS011;13406;53.380;7.226;2023-11-19T14:30:34;29.90;;;5.83;;
25497;SDS011;13406;53.380;7.226;2023-11-19T14:32:59;29.80;;;8.30;;
25497;SDS011;13406;53.380;7.226;2023-11-19T14:35:24;35.83;;;7.13;;
25497;SDS011;13406;53.380;7.226;2023-11-19T14:37:50;23.83;;;6.10;;
25497;SDS011;13406;53.380;7.226;2023-11-19T14:40:15;33.23;;;5.93;;
25497;SDS011;13406;53.380;7.226;2023-11-19T14:42:41;30.77;;;6.10;;
25497;SDS011;13406;53.380;7.226;2023-11-19T14:45:08;36.17;;;6.80;;
25497;SDS011;13406;53.380;7.226;2023-11-19T14:47:36;31.50;;;5.70;;
25497;SDS011;13406;53.380;7.226;2023-11-19T14:50:02;39.10;;;7.63;;
25497;SDS011;13406;53.380;7.226;2023-11-19T14:52:31;27.80;;;5.63;;
25497;SDS011;13406;53.380;7.226;2023-11-19T14:54:57;26.97;;;5.40;;